Time;durP1;ratioP1;P1;durP2;ratioP2;P2;SDS_P1;SDS_P2;PMS_P1;PMS_P2;Temp;Humidity;BMP_temperature;BMP_pressure;BME280_temperature;BME280_humidity;BME280_pressure;Samples;Min_cycle;Max_cycle;Signal;HPM_P1;HPM_P2
2023/12/29 00:02:01;;;;;;;11.20;4.20;;;19.50;58.90;;;;;;5051289;28;20581;-55
2023/12/29 00:04:27;;;;;;;10.77;4.22;;;19.50;59.60;;;;;;5047747;28;20365;-55
2023/12/29 00:06:53;;;;;;;8.13;3.90;;;19.40;59.10;;;;;;5050376;28;20028;-52
2023/12/29 00:09:21;;;;;;;9.93;3.88;;;19.40;59.40;;;;;;5042557;28;20036;-53
2023/12/29 00:11:49;;;;;;;12.93;4.10;;;19.40;59.40;;;;;;5050035;28;20035;-52
2023/12/29 00:14:14;;;;;;;11.57;3.67;;;19.40;59.10;;;;;;5050267;28;20439;-56
2023/12/29 00:16:40;;;;;;;9.70;3.78;;;19.50;59.40;;;;;;5047021;28;20083;-52
2023/12/29 00:19:06;;;;;;;8.77;3.50;;;19.40;58.90;;;;;;5052246;28;20029;-58
2023/12/29 00:21:32;;;;;;;8.80;3.78;;;19.50;58.90;;;;;;5054706;28;20021;-51
2023/12/29 00:23:58;;;;;;;9.15;3.45;;;19.40;58.90;;;;;;5054677;28;20116;-58
2023/12/29 00:26:23;;;;;;;8.02;3.88;;;19.40;59.00;;;;;;5051446;28;20108;-51
2023/12/29 00:28:56;;;;;;;9.77;3.55;;;19.40;59.10;;;;;;5048638;28;20079;-51
2023/12/29 00:31:21;;;;;;;11.52;4.03;;;19.40;59.10;;;;;;5046439;28;20112;-53
2023/12/29 00:33:51;;;;;;;10.35;3.92;;;19.40;59.10;;;;;;5053693;28;20502;-53
2023/12/29 00:36:20;;;;;;;9.50;3.72;;;19.30;59.00;;;;;;5052835;28;20027;-55
2023/12/29 00:38:46;;;;;;;14.38;4.38;;;19.30;59.00;;;;;;5049758;28;20505;-54
2023/12/29 00:41:12;;;;;;;7.45;3.95;;;19.30;59.00;;;;;;5054432;28;20100;-52
2023/12/29 00:43:37;;;;;;;9.00;4.00;;;19.30;58.80;;;;;;5047117;28;20017;-51
2023/12/29 00:46:04;;;;;;;10.20;3.65;;;19.40;58.90;;;;;;5054061;28;20103;-54
2023/12/29 00:48:34;;;;;;;13.45;3.92;;;19.40;58.90;;;;;;5050885;28;20032;-58
2023/12/29 00:51:01;;;;;;;;;;;19.40;58.80;;;;;;5060103;28;20052;-53
2023/12/29 00:53:26;;;;;;;9.10;3.40;;;19.40;58.80;;;;;;5063670;28;19938;-51
2023/12/29 00:55:52;;;;;;;8.50;3.25;;;19.40;58.80;;;;;;5057565;28;20024;-55
2023/12/29 00:58:18;;;;;;;9.00;3.50;;;19.40;58.60;;;;;;5052745;28;20062;-55
2023/12/29 01:00:44;;;;;;;12.30;3.55;;;19.40;58.70;;;;;;5057053;28;20017;-52
2023/12/29 01:03:09;;;;;;;8.15;3.17;;;19.40;58.70;;;;;;5060263;28;20496;-55
2023/12/29 01:05:35;;;;;;;10.60;3.50;;;19.40;58.80;;;;;;5057495;28;20025;-52
2023/12/29 01:08:01;;;;;;;7.75;3.80;;;19.30;58.60;;;;;;5056441;28;20033;-52
2023/12/29 01:10:27;;;;;;;9.13;3.63;;;19.30;58.80;;;;;;5055287;28;20029;-57
2023/12/29 01:12:52;;;;;;;10.32;3.40;;;19.30;58.60;;;;;;5063662;28;20025;-57
2023/12/29 01:15:19;;;;;;;11.50;3.92;;;19.30;58.70;;;;;;5055251;28;20025;-57
2023/12/29 01:17:46;;;;;;;6.57;3.20;;;19.30;58.60;;;;;;5052294;28;20476;-55
2023/12/29 01:20:13;;;;;;;9.05;3.38;;;19.30;58.80;;;;;;5050826;28;20075;-50
2023/12/29 01:22:38;;;;;;;8.10;3.25;;;19.30;58.60;;;;;;5053529;28;20025;-55
2023/12/29 01:25:05;;;;;;;8.02;3.38;;;19.30;58.60;;;;;;5057810;28;20072;-53
2023/12/29 01:27:31;;;;;;;10.90;2.85;;;19.30;58.50;;;;;;5055521;28;20111;-53
2023/12/29 01:29:57;;;;;;;9.00;3.53;;;19.30;58.70;;;;;;5037511;28;20108;-55
2023/12/29 01:32:23;;;;;;;6.57;2.90;;;19.30;58.60;;;;;;5057561;28;20579;-52
2023/12/29 01:34:48;;;;;;;11.77;3.25;;;19.30;58.60;;;;;;5066586;28;20028;-53
2023/12/29 01:37:14;;;;;;;8.07;3.35;;;19.30;58.50;;;;;;5061557;28;20499;-50
2023/12/29 01:39:40;;;;;;;6.72;3.28;;;19.30;58.60;;;;;;5058593;28;20402;-51
2023/12/29 01:42:06;;;;;;;7.28;3.20;;;19.30;58.50;;;;;;5066409;28;20800;-52
2023/12/29 01:44:32;;;;;;;9.35;3.20;;;19.30;58.50;;;;;;5071168;28;20103;-55
2023/12/29 01:47:05;;;;;;;6.97;2.83;;;19.30;58.60;;;;;;5054400;28;20100;-55
2023/12/29 01:49:33;;;;;;;5.10;3.00;;;19.30;58.50;;;;;;5052973;28;20026;-51
2023/12/29 01:52:00;;;;;;;7.30;3.15;;;19.30;58.50;;;;;;5056373;28;20609;-55
2023/12/29 01:54:32;;;;;;;5.25;2.85;;;19.30;58.70;;;;;;5052236;23;20050;-60
2023/12/29 01:57:00;;;;;;;7.25;2.88;;;19.30;58.50;;;;;;5032289;28;20148;-60
2023/12/29 01:59:27;;;;;;;7.68;3.28;;;19.20;58.50;;;;;;5046568;28;20103;-61
2023/12/29 02:01:55;;;;;;;8.30;3.42;;;19.30;58.50;;;;;;5038033;28;20032;-61
2023/12/29 02:04:26;;;;;;;8.40;3.05;;;19.30;58.50;;;;;;5055722;28;20028;-61
2023/12/29 02:06:53;;;;;;;6.30;3.00;;;19.30;58.40;;;;;;5058534;28;20020;-60
2023/12/29 02:09:19;;;;;;;7.35;2.55;;;19.20;58.50;;;;;;5062887;28;20451;-60
2023/12/29 02:11:45;;;;;;;5.10;2.90;;;19.30;58.70;;;;;;5061675;28;20103;-62
2023/12/29 02:14:12;;;;;;;5.45;3.00;;;19.20;58.40;;;;;;5056842;28;20036;-62
2023/12/29 02:17:04;;;;;;;5.57;3.03;;;19.30;58.60;;;;;;5060903;28;20025;-61
2023/12/29 02:19:41;;;;;;;5.53;2.45;;;19.20;58.30;;;;;;5049064;28;20496;-62
2023/12/29 02:22:08;;;;;;;6.82;2.78;;;19.30;58.30;;;;;;5053744;28;20029;-62
2023/12/29 02:24:36;;;;;;;5.25;2.80;;;19.30;58.20;;;;;;5050092;28;20032;-62
2023/12/29 02:27:13;;;;;;;6.10;2.80;;;19.30;58.80;;;;;;5065994;28;20047;-62
2023/12/29 02:29:41;;;;;;;5.45;2.50;;;19.30;58.20;;;;;;5062078;28;20075;-62
2023/12/29 02:32:12;;;;;;;6.20;2.65;;;19.30;58.10;;;;;;5061094;28;20048;-62
2023/12/29 02:34:40;;;;;;;6.25;2.70;;;19.30;58.10;;;;;;5057664;28;20036;-62
2023/12/29 02:37:08;;;;;;;5.57;2.90;;;19.30;58.20;;;;;;5064325;28;20028;-62
2023/12/29 02:39:34;;;;;;;4.78;2.35;;;19.30;58.10;;;;;;5060786;28;20020;-62
2023/12/29 02:41:59;;;;;;;4.40;2.28;;;19.30;58.20;;;;;;5058678;28;20095;-62
2023/12/29 02:44:25;;;;;;;5.40;2.50;;;19.30;58.20;;;;;;5063048;28;20024;-62
2023/12/29 02:46:51;;;;;;;6.88;2.67;;;19.30;58.20;;;;;;5055992;28;20025;-62
2023/12/29 02:49:17;;;;;;;4.25;2.80;;;19.20;58.20;;;;;;5055791;28;20060;-62
2023/12/29 02:51:45;;;;;;;4.32;2.67;;;19.30;58.50;;;;;;5051890;28;20091;-62
2023/12/29 02:54:11;;;;;;;5.85;2.72;;;19.30;58.60;;;;;;5050477;28;20033;-62
2023/12/29 02:56:37;;;;;;;5.38;2.40;;;19.30;58.50;;;;;;5047339;28;20029;-62
2023/12/29 02:59:02;;;;;;;9.98;2.97;;;19.20;58.40;;;;;;5047846;28;20036;-62
2023/12/29 03:01:28;;;;;;;6.35;2.58;;;19.30;58.40;;;;;;5060600;28;20023;-62
2023/12/29 03:03:54;;;;;;;6.60;2.40;;;19.20;58.60;;;;;;5059950;28;20062;-62
2023/12/29 03:06:20;;;;;;;8.40;2.40;;;19.20;58.40;;;;;;5052010;28;20052;-62
2023/12/29 03:08:46;;;;;;;5.68;2.85;;;19.20;58.50;;;;;;5054875;28;20081;-62
2023/12/29 03:11:12;;;;;;;4.82;2.38;;;19.20;58.60;;;;;;5062479;28;20036;-62
2023/12/29 03:13:38;;;;;;;4.90;2.25;;;19.20;58.50;;;;;;5062376;28;20329;-62
2023/12/29 03:16:03;;;;;;;3.78;2.45;;;19.20;58.60;;;;;;5053862;28;20454;-62
2023/12/29 03:18:29;;;;;;;5.38;2.53;;;19.20;58.70;;;;;;5048875;28;20491;-61
2023/12/29 03:20:55;;;;;;;6.18;2.33;;;19.20;58.60;;;;;;5056297;28;20074;-62
2023/12/29 03:23:21;;;;;;;7.78;2.50;;;19.20;58.60;;;;;;5051061;28;20047;-62
2023/12/29 03:25:47;;;;;;;6.15;2.60;;;19.20;58.60;;;;;;5057782;28;20020;-62
2023/12/29 03:28:13;;;;;;;5.65;2.55;;;19.20;58.50;;;;;;5056388;28;20033;-62
2023/12/29 03:30:38;;;;;;;4.95;2.25;;;19.20;58.70;;;;;;5064253;28;20025;-62
2023/12/29 03:33:04;;;;;;;7.43;2.22;;;19.20;58.40;;;;;;5060444;28;20024;-62
2023/12/29 03:35:30;;;;;;;8.48;2.63;;;19.20;58.50;;;;;;5056493;28;20483;-62
2023/12/29 03:37:56;;;;;;;4.05;2.30;;;19.20;58.60;;;;;;5052788;28;20135;-62
2023/12/29 03:40:21;;;;;;;5.20;2.53;;;19.20;58.70;;;;;;5061794;28;20028;-61
2023/12/29 03:42:47;;;;;;;10.95;2.47;;;19.20;58.60;;;;;;5064260;28;20488;-62
2023/12/29 03:45:13;;;;;;;3.88;2.47;;;19.20;59.00;;;;;;5059449;28;20381;-62
2023/12/29 03:47:39;;;;;;;5.35;2.22;;;19.20;58.60;;;;;;5056375;28;20052;-62
2023/12/29 03:50:05;;;;;;;3.70;2.38;;;19.20;58.60;;;;;;5058098;28;20033;-61
2023/12/29 03:52:31;;;;;;;5.68;2.00;;;19.20;58.50;;;;;;5049863;28;20021;-62
2023/12/29 03:54:57;;;;;;;3.60;2.03;;;19.20;58.40;;;;;;5051344;28;20040;-62
2023/12/29 03:57:22;;;;;;;3.78;2.10;;;19.20;58.40;;;;;;5079854;28;20078;-62
2023/12/29 03:59:48;;;;;;;4.13;2.08;;;19.20;58.40;;;;;;5051829;28;20496;-62
2023/12/29 04:02:14;;;;;;;3.95;1.95;;;19.20;58.50;;;;;;5067653;28;20070;-62
2023/12/29 04:04:40;;;;;;;5.00;2.30;;;19.20;58.20;;;;;;5062309;28;20507;-62
2023/12/29 04:07:06;;;;;;;4.38;2.17;;;19.20;58.20;;;;;;5058495;28;20025;-62
2023/12/29 04:09:32;;;;;;;5.15;2.40;;;19.20;58.20;;;;;;5053324;28;20021;-62
2023/12/29 04:11:58;;;;;;;5.25;2.10;;;19.20;58.10;;;;;;5066107;28;20526;-62
2023/12/29 04:14:23;;;;;;;4.35;2.25;;;19.20;58.20;;;;;;5058816;28;20036;-62
2023/12/29 04:16:49;;;;;;;6.13;2.28;;;19.20;58.00;;;;;;5066136;28;20028;-62
2023/12/29 04:19:15;;;;;;;3.25;2.13;;;19.20;58.20;;;;;;5059697;28;20037;-61
2023/12/29 04:21:41;;;;;;;4.70;2.20;;;19.20;58.20;;;;;;5047962;28;20059;-62
2023/12/29 04:24:06;;;;;;;7.22;2.22;;;19.20;58.10;;;;;;5050621;28;20025;-62
2023/12/29 04:26:38;;;;;;;5.18;2.20;;;19.20;58.40;;;;;;5056920;28;20114;-62
2023/12/29 04:29:05;;;;;;;5.32;2.10;;;19.20;58.30;;;;;;5063061;28;20522;-62
2023/12/29 04:31:30;;;;;;;4.57;2.00;;;19.20;58.20;;;;;;5050001;28;20025;-62
2023/12/29 04:33:56;;;;;;;4.13;2.20;;;19.20;58.30;;;;;;5062141;28;20488;-62
2023/12/29 04:36:22;;;;;;;3.53;2.20;;;19.20;58.30;;;;;;5057429;28;20459;-62
2023/12/29 04:38:47;;;;;;;3.63;2.22;;;19.20;58.40;;;;;;5058122;28;20597;-61
2023/12/29 04:41:14;;;;;;;5.43;2.30;;;19.20;58.50;;;;;;5055452;28;20039;-62
2023/12/29 04:43:40;;;;;;;4.82;2.20;;;19.20;58.70;;;;;;5054966;28;20685;-62
2023/12/29 04:46:06;;;;;;;4.72;2.28;;;19.20;58.80;;;;;;5055308;28;20104;-62
2023/12/29 04:48:31;;;;;;;3.95;1.90;;;19.20;58.60;;;;;;5057860;28;20538;-62
2023/12/29 04:50:57;;;;;;;4.70;2.30;;;19.20;58.60;;;;;;5058091;28;20511;-62
2023/12/29 04:53:23;;;;;;;3.60;2.22;;;19.20;58.50;;;;;;5055079;28;20033;-62
2023/12/29 04:55:49;;;;;;;3.20;1.92;;;19.20;58.50;;;;;;5061209;28;20047;-62
2023/12/29 04:58:14;;;;;;;3.80;2.08;;;19.10;58.70;;;;;;5059730;28;20031;-62
2023/12/29 05:00:40;;;;;;;4.28;1.98;;;19.10;58.40;;;;;;5061886;28;20108;-61
2023/12/29 05:03:06;;;;;;;3.75;1.95;;;19.10;58.60;;;;;;5053461;28;20017;-62
2023/12/29 05:05:32;;;;;;;5.25;2.15;;;19.20;58.70;;;;;;5059837;28;20092;-62
2023/12/29 05:07:57;;;;;;;5.07;2.20;;;19.10;58.70;;;;;;5061221;28;20032;-62
2023/12/29 05:10:23;;;;;;;4.10;2.03;;;19.10;58.70;;;;;;5064672;28;20024;-62
2023/12/29 05:12:49;;;;;;;3.83;2.08;;;19.10;58.60;;;;;;5061013;28;20055;-62
2023/12/29 05:15:15;;;;;;;4.95;2.03;;;19.10;58.70;;;;;;5067535;28;20017;-62
2023/12/29 05:17:40;;;;;;;3.53;2.00;;;19.20;58.70;;;;;;5068183;28;20028;-62
2023/12/29 05:20:07;;;;;;;5.47;1.88;;;19.10;58.50;;;;;;5061516;28;20657;-62
2023/12/29 05:22:33;;;;;;;8.18;2.30;;;19.10;58.70;;;;;;5062709;28;20499;-61
2023/12/29 05:25:00;;;;;;;6.20;2.47;;;19.10;58.90;;;;;;5055868;28;20078;-62
2023/12/29 05:27:26;;;;;;;4.57;2.40;;;19.10;58.90;;;;;;5070260;28;20396;-61
2023/12/29 05:29:52;;;;;;;2.85;2.00;;;19.10;58.80;;;;;;5060038;28;20500;-61
2023/12/29 05:32:18;;;;;;;13.10;2.22;;;19.10;58.70;;;;;;5064100;28;20116;-62
2023/12/29 05:34:44;;;;;;;5.68;2.35;;;19.10;58.80;;;;;;5060777;28;20048;-62
2023/12/29 05:37:09;;;;;;;5.10;2.22;;;19.10;58.70;;;;;;5055262;28;20052;-62
2023/12/29 05:39:35;;;;;;;3.47;2.15;;;19.10;58.60;;;;;;5061748;28;20032;-62
2023/12/29 05:42:01;;;;;;;4.85;2.30;;;19.10;58.50;;;;;;5070064;28;20032;-62
2023/12/29 05:44:27;;;;;;;4.85;2.33;;;19.10;58.30;;;;;;5061241;28;20025;-62
2023/12/29 05:46:54;;;;;;;3.40;2.20;;;19.10;58.50;;;;;;5065208;28;20016;-62
2023/12/29 05:49:25;;;;;;;4.72;2.30;;;19.20;58.40;;;;;;5064841;28;20040;-61
2023/12/29 05:51:51;;;;;;;4.97;2.38;;;19.20;58.60;;;;;;5061315;28;20072;-62
2023/12/29 05:54:16;;;;;;;3.50;2.10;;;19.10;58.30;;;;;;5062817;28;20500;-62
2023/12/29 05:56:43;;;;;;;4.30;2.25;;;19.20;58.40;;;;;;5060290;28;20032;-62
2023/12/29 05:59:09;;;;;;;3.78;2.25;;;19.10;58.30;;;;;;5064271;28;20025;-62
2023/12/29 06:01:35;;;;;;;3.72;2.28;;;19.20;58.40;;;;;;5062928;28;20389;-61
2023/12/29 06:04:00;;;;;;;4.30;2.42;;;19.10;58.30;;;;;;5058962;28;20025;-62
2023/12/29 06:06:26;;;;;;;4.88;2.45;;;19.10;58.30;;;;;;5057458;28;20021;-61
2023/12/29 06:08:52;;;;;;;4.68;2.20;;;19.10;58.40;;;;;;5056581;28;20028;-62
2023/12/29 06:11:18;;;;;;;7.03;2.60;;;19.10;58.50;;;;;;5065669;28;20047;-62
2023/12/29 06:13:44;;;;;;;4.00;2.40;;;19.10;58.50;;;;;;5062474;28;20025;-62
2023/12/29 06:16:10;;;;;;;3.22;2.47;;;19.10;58.40;;;;;;5060507;28;20036;-62
2023/12/29 06:18:35;;;;;;;4.13;2.40;;;19.10;58.50;;;;;;5054997;28;20029;-62
2023/12/29 06:21:04;;;;;;;5.68;2.60;;;19.10;58.70;;;;;;5060768;28;20017;-61
2023/12/29 06:23:30;;;;;;;5.32;2.40;;;19.10;58.50;;;;;;5043497;28;20032;-61
2023/12/29 06:25:56;;;;;;;5.63;2.40;;;19.10;58.60;;;;;;5056419;28;20021;-62
2023/12/29 06:28:22;;;;;;;4.70;2.40;;;19.10;59.00;;;;;;5060322;28;20127;-62
2023/12/29 06:30:47;;;;;;;5.53;2.58;;;19.10;58.40;;;;;;5060435;28;20028;-62
2023/12/29 06:33:13;;;;;;;4.50;2.50;;;19.10;58.90;;;;;;5063181;28;20021;-62
2023/12/29 06:35:39;;;;;;;6.55;2.45;;;19.10;58.90;;;;;;5063493;28;20020;-62
2023/12/29 06:38:05;;;;;;;6.13;2.38;;;19.10;58.80;;;;;;5052610;28;20021;-62
2023/12/29 06:40:31;;;;;;;4.18;2.40;;;19.10;58.60;;;;;;5054790;28;20070;-63
2023/12/29 06:42:56;;;;;;;5.45;2.53;;;19.10;58.50;;;;;;5062722;28;20073;-62
2023/12/29 06:45:22;;;;;;;4.45;2.38;;;19.10;58.70;;;;;;5058887;28;20477;-62
2023/12/29 06:47:48;;;;;;;4.15;2.40;;;19.10;58.60;;;;;;5058445;28;20032;-62
2023/12/29 06:50:14;;;;;;;5.05;2.60;;;19.10;58.70;;;;;;5050873;28;20021;-62
2023/12/29 06:52:40;;;;;;;3.15;2.25;;;19.10;58.40;;;;;;5050371;28;20025;-62
2023/12/29 06:55:07;;;;;;;4.53;2.50;;;19.10;58.40;;;;;;5060355;28;20025;-61
2023/12/29 06:57:33;;;;;;;5.03;2.70;;;19.10;58.50;;;;;;5059172;28;20025;-62
2023/12/29 06:59:59;;;;;;;4.47;2.30;;;19.10;58.60;;;;;;5049523;28;20021;-62
2023/12/29 07:02:24;;;;;;;4.82;2.63;;;19.10;58.40;;;;;;5060908;28;20024;-62
2023/12/29 07:04:50;;;;;;;6.50;2.30;;;19.10;58.70;;;;;;5059125;28;20038;-62
2023/12/29 07:07:16;;;;;;;4.60;2.50;;;19.10;58.60;;;;;;5060136;28;20070;-62
2023/12/29 07:09:42;;;;;;;7.85;2.80;;;19.10;58.50;;;;;;5055517;28;20016;-62
2023/12/29 07:12:08;;;;;;;4.88;2.45;;;19.10;58.60;;;;;;5052207;28;20029;-62
2023/12/29 07:14:35;;;;;;;4.00;2.10;;;19.10;58.90;;;;;;5059117;28;20078;-62
2023/12/29 07:17:02;;;;;;;7.38;2.72;;;19.10;58.60;;;;;;5062692;28;20028;-62
2023/12/29 07:19:33;;;;;;;5.68;2.63;;;19.20;58.70;;;;;;5057488;28;20033;-62
2023/12/29 07:21:59;;;;;;;5.35;2.72;;;19.10;58.50;;;;;;5044766;28;20476;-62
2023/12/29 07:24:25;;;;;;;5.57;2.67;;;19.10;58.60;;;;;;5051016;28;20025;-62
2023/12/29 07:26:51;;;;;;;4.85;2.60;;;19.20;58.70;;;;;;5059648;28;20036;-62
2023/12/29 07:29:17;;;;;;;4.20;2.50;;;19.20;58.60;;;;;;5059004;28;20114;-62
2023/12/29 07:31:43;;;;;;;5.13;2.78;;;19.20;58.70;;;;;;5056608;28;20022;-62
2023/12/29 07:34:08;;;;;;;7.28;2.67;;;19.20;58.40;;;;;;5057804;28;20487;-62
2023/12/29 07:36:38;;;;;;;4.55;2.60;;;19.20;58.70;;;;;;5050809;28;20116;-62
2023/12/29 07:39:04;;;;;;;6.38;2.60;;;19.20;58.40;;;;;;5053990;28;20028;-62
2023/12/29 07:41:30;;;;;;;5.15;2.70;;;19.20;58.60;;;;;;5062882;28;20013;-62
2023/12/29 07:43:56;;;;;;;3.95;2.50;;;19.20;58.40;;;;;;5053650;28;20400;-62
2023/12/29 07:46:28;;;;;;;5.63;2.78;;;19.20;58.50;;;;;;5054926;28;20104;-62
2023/12/29 07:48:54;;;;;;;6.72;2.80;;;19.20;58.40;;;;;;5050959;28;20103;-62
2023/12/29 07:51:21;;;;;;;7.30;3.10;;;19.20;58.20;;;;;;5051075;28;20108;-62
2023/12/29 07:53:46;;;;;;;5.03;2.80;;;19.20;58.10;;;;;;5078100;23;20052;-51
2023/12/29 07:56:12;;;;;;;5.95;2.58;;;19.20;58.20;;;;;;5089549;28;20073;-52
2023/12/29 07:58:38;;;;;;;4.88;2.78;;;19.20;58.30;;;;;;5078294;28;20418;-49
2023/12/29 08:01:04;;;;;;;6.70;2.67;;;19.20;58.30;;;;;;5078970;28;20048;-52
2023/12/29 08:03:30;;;;;;;6.07;2.90;;;19.20;58.50;;;;;;5087519;28;20438;-54
2023/12/29 08:05:55;;;;;;;4.53;2.55;;;19.20;58.60;;;;;;5073668;28;20035;-52
2023/12/29 08:08:21;;;;;;;6.80;2.90;;;19.20;58.70;;;;;;5070424;28;20031;-54
2023/12/29 08:10:47;;;;;;;6.25;3.13;;;19.20;58.60;;;;;;5071019;28;20100;-54
2023/12/29 08:13:12;;;;;;;6.13;3.00;;;19.20;58.60;;;;;;5070958;28;20024;-55
2023/12/29 08:15:39;;;;;;;9.02;2.78;;;19.20;58.60;;;;;;5070086;28;20009;-53
2023/12/29 08:18:05;;;;;;;8.55;3.03;;;19.20;58.60;;;;;;5060343;28;20028;-57
2023/12/29 08:20:31;;;;;;;8.57;2.58;;;19.20;58.70;;;;;;5071113;28;20017;-52
2023/12/29 08:22:57;;;;;;;5.05;2.67;;;19.20;58.80;;;;;;5070705;28;20704;-54
2023/12/29 08:25:23;;;;;;;7.82;3.25;;;19.20;58.80;;;;;;5062470;28;20033;-54
2023/12/29 08:27:49;;;;;;;5.82;3.03;;;19.20;58.80;;;;;;5069668;28;20068;-56
2023/12/29 08:30:14;;;;;;;5.30;3.00;;;19.20;58.90;;;;;;5069878;28;20029;-55
2023/12/29 08:32:40;;;;;;;6.13;3.10;;;19.20;58.70;;;;;;5062613;28;20052;-53
2023/12/29 08:35:06;;;;;;;8.23;3.45;;;19.20;58.60;;;;;;5070801;28;20032;-53
2023/12/29 08:37:33;;;;;;;7.15;3.22;;;19.30;58.70;;;;;;5071569;28;20032;-56
2023/12/29 08:39:59;;;;;;;5.68;3.17;;;19.20;58.90;;;;;;5073669;28;20484;-53
2023/12/29 08:42:26;;;;;;;6.13;3.10;;;19.30;59.00;;;;;;5082869;28;20151;-51
2023/12/29 08:44:52;;;;;;;8.57;3.00;;;19.30;59.10;;;;;;5076694;28;20395;-52
2023/12/29 08:47:18;;;;;;;6.38;3.20;;;19.30;59.10;;;;;;5073329;28;20037;-55
2023/12/29 08:49:43;;;;;;;4.70;2.67;;;19.30;59.20;;;;;;5071295;28;20055;-54
2023/12/29 08:52:09;;;;;;;11.32;3.00;;;19.30;59.50;;;;;;5072524;28;20028;-56
2023/12/29 08:54:38;;;;;;;6.22;2.80;;;19.30;59.50;;;;;;5074159;28;20617;-57
2023/12/29 08:57:04;;;;;;;7.07;2.78;;;19.30;59.40;;;;;;5073919;28;20058;-52
2023/12/29 08:59:30;;;;;;;7.25;3.03;;;19.30;59.40;;;;;;5073657;28;20495;-55
2023/12/29 09:01:55;;;;;;;11.18;3.95;;;19.30;59.40;;;;;;5072361;28;20043;-56
2023/12/29 09:04:21;;;;;;;8.50;2.78;;;19.30;59.40;;;;;;5072499;28;20107;-56
2023/12/29 09:06:47;;;;;;;8.18;3.17;;;19.30;59.50;;;;;;5068303;28;20021;-54
2023/12/29 09:09:13;;;;;;;12.18;3.30;;;19.30;59.40;;;;;;5071491;28;20044;-53
2023/12/29 09:11:39;;;;;;;7.63;3.40;;;19.30;59.30;;;;;;5073312;28;20056;-52
2023/12/29 09:14:05;;;;;;;6.25;3.35;;;19.30;59.30;;;;;;5066516;28;20058;-52
2023/12/29 09:16:31;;;;;;;8.52;3.33;;;19.30;60.50;;;;;;5064878;28;20024;-51
2023/12/29 09:18:57;;;;;;;7.55;2.85;;;19.30;60.40;;;;;;5072868;28;20035;-58
2023/12/29 09:21:23;;;;;;;21.42;4.43;;;19.40;60.40;;;;;;5072444;28;20028;-57
2023/12/29 09:23:50;;;;;;;8.30;3.35;;;19.50;60.70;;;;;;5073742;28;20023;-55
2023/12/29 09:26:16;;;;;;;15.15;3.33;;;19.50;60.40;;;;;;5071602;28;20017;-60
2023/12/29 09:28:45;;;;;;;10.23;3.10;;;19.50;60.50;;;;;;5066859;28;20028;-58
2023/12/29 09:31:11;;;;;;;12.98;3.60;;;19.50;61.00;;;;;;5072878;28;20028;-56
2023/12/29 09:33:37;;;;;;;21.33;3.50;;;19.50;61.40;;;;;;5071485;28;20024;-59
2023/12/29 09:36:04;;;;;;;15.68;3.85;;;19.60;62.00;;;;;;5073544;28;20025;-57
2023/12/29 09:38:30;;;;;;;17.42;4.38;;;19.70;63.60;;;;;;5068851;28;20119;-59
2023/12/29 09:41:01;;;;;;;18.80;4.70;;;19.80;65.10;;;;;;5070629;28;20139;-53
2023/12/29 09:43:28;;;;;;;27.40;5.15;;;19.70;65.40;;;;;;5064587;28;20032;-54
2023/12/29 09:45:55;;;;;;;11.13;4.50;;;19.70;65.50;;;;;;5073010;28;20105;-58
2023/12/29 09:48:26;;;;;;;25.85;3.90;;;19.70;65.20;;;;;;5071621;28;20053;-58
2023/12/29 09:50:52;;;;;;;18.35;4.95;;;19.70;65.60;;;;;;5077531;28;20099;-56
2023/12/29 09:53:20;;;;;;;20.92;4.00;;;19.70;65.90;;;;;;5060591;28;20012;-50
2023/12/29 09:55:49;;;;;;;15.52;4.38;;;19.70;65.10;;;;;;5072572;28;20063;-55
2023/12/29 09:58:17;;;;;;;21.07;4.13;;;19.60;65.70;;;;;;5072928;28;20020;-55
2023/12/29 10:00:46;;;;;;;18.10;4.97;;;19.60;65.70;;;;;;5062641;28;20765;-55
2023/12/29 10:03:12;;;;;;;25.58;5.20;;;19.70;68.90;;;;;;5070081;28;20020;-53
2023/12/29 10:05:38;;;;;;;15.15;4.28;;;19.70;68.30;;;;;;5067598;28;20499;-52
2023/12/29 10:08:08;;;;;;;39.42;4.93;;;19.80;67.40;;;;;;5072243;28;20423;-54
2023/12/29 10:10:37;;;;;;;12.73;3.92;;;19.80;67.10;;;;;;5061329;28;20029;-55
2023/12/29 10:13:06;;;;;;;17.63;4.03;;;19.80;67.60;;;;;;5052989;28;20527;-56
2023/12/29 10:15:58;;;;;;;14.10;3.72;;;19.80;68.30;;;;;;5060079;28;20028;-53
2023/12/29 10:18:46;;;;;;;26.23;4.30;;;19.80;67.10;;;;;;5071312;28;20039;-55
2023/12/29 10:21:28;;;;;;;16.33;3.90;;;19.80;66.50;;;;;;5075940;28;20541;-59
2023/12/29 10:24:03;;;;;;;21.98;4.28;;;19.80;66.50;;;;;;5065981;28;20028;-57
